createdAt,value
2018-07-27T00:00:24.581Z,84.20
2018-07-27T00:02:52.617Z,84.50
2018-07-27T00:05:20.663Z,84.70
2018-07-27T00:07:48.722Z,84.40
2018-07-27T00:10:17.771Z,84.70
2018-07-27T00:12:45.920Z,85.00
2018-07-27T00:15:14.311Z,84.80
2018-07-27T00:17:42.569Z,84.90
2018-07-27T00:20:10.684Z,84.70
2018-07-27T00:22:39.015Z,84.60
2018-07-27T00:25:07.142Z,85.20
2018-07-27T00:27:35.179Z,85.90
2018-07-27T00:30:04.289Z,86.10
2018-07-27T00:32:32.360Z,86.70
2018-07-27T00:35:00.449Z,87.20
2018-07-27T00:37:28.471Z,87.00
2018-07-27T00:39:56.490Z,87.50
2018-07-27T00:42:24.453Z,88.30
2018-07-27T00:44:52.440Z,87.50
2018-07-27T00:47:20.407Z,86.70
2018-07-27T00:49:48.454Z,87.10
2018-07-27T00:52:16.425Z,87.00
2018-07-27T00:54:44.405Z,87.70
2018-07-27T00:57:12.425Z,88.50
2018-07-27T00:59:40.397Z,89.40
2018-07-27T01:02:08.454Z,89.40
2018-07-27T01:04:36.452Z,89.10
2018-07-27T01:09:32.653Z,88.30
2018-07-27T01:12:00.634Z,88.90
2018-07-27T01:14:28.644Z,90.00
2018-07-27T01:16:56.589Z,90.10
2018-07-27T01:19:24.633Z,90.10
2018-07-27T01:21:52.622Z,90.00
2018-07-27T01:24:20.687Z,89.80
2018-07-27T01:26:48.667Z,90.00
2018-07-27T01:29:17.960Z,90.00
2018-07-27T01:31:46.048Z,90.30
2018-07-27T01:34:14.037Z,90.00
2018-07-27T01:36:42.200Z,90.00
2018-07-27T01:39:14.116Z,90.30
2018-07-27T01:41:43.509Z,90.00
2018-07-27T01:44:12.411Z,90.30
2018-07-27T01:46:40.830Z,90.40
2018-07-27T01:49:09.780Z,90.90
2018-07-27T01:51:37.885Z,90.80
2018-07-27T01:54:05.931Z,90.70
2018-07-27T01:59:02.040Z,90.60
2018-07-27T02:01:30.069Z,90.70
2018-07-27T02:03:58.088Z,90.50
2018-07-27T02:06:26.129Z,91.10
2018-07-27T02:08:54.129Z,91.00
2018-07-27T02:11:22.108Z,90.90
2018-07-27T02:16:18.160Z,91.00
2018-07-27T02:18:46.142Z,91.20
2018-07-27T02:21:14.163Z,91.00
2018-07-27T02:23:42.200Z,91.30
2018-07-27T02:26:10.303Z,91.60
2018-07-27T02:28:38.307Z,91.70
2018-07-27T02:31:07.131Z,91.60
2018-07-27T02:33:35.128Z,91.80
2018-07-27T02:36:03.233Z,92.20
2018-07-27T02:38:31.207Z,92.10
2018-07-27T02:40:59.229Z,92.20
2018-07-27T02:43:27.292Z,92.30
2018-07-27T02:45:55.317Z,92.20
2018-07-27T02:55:47.395Z,92.90
2018-07-27T02:58:15.394Z,93.00
2018-07-27T03:00:43.395Z,92.80
2018-07-27T03:03:11.479Z,93.10
2018-07-27T03:05:39.546Z,93.00
2018-07-27T03:08:07.545Z,93.20
2018-07-27T03:10:35.591Z,93.30
2018-07-27T03:13:03.622Z,93.60
2018-07-27T03:15:31.652Z,93.50
2018-07-27T03:20:27.673Z,94.10
2018-07-27T03:22:55.791Z,94.40
2018-07-27T03:25:23.827Z,94.70
2018-07-27T03:27:51.813Z,94.80
2018-07-27T03:30:19.840Z,94.70
2018-07-27T03:32:47.825Z,94.80
2018-07-27T03:37:43.980Z,95.10
2018-07-27T03:40:12.068Z,95.30
2018-07-27T03:42:40.151Z,95.40
2018-07-27T03:45:08.322Z,95.60
2018-07-27T03:47:36.331Z,96.00
2018-07-27T03:50:04.851Z,96.30
2018-07-27T03:52:32.890Z,95.70
2018-07-27T03:55:00.833Z,95.90
2018-07-27T03:57:28.846Z,96.20
2018-07-27T03:59:56.899Z,96.20
2018-07-27T04:02:25.041Z,96.40
2018-07-27T04:04:52.960Z,96.60
2018-07-27T04:07:21.006Z,96.60
2018-07-27T04:09:49.084Z,97.10
2018-07-27T04:12:17.212Z,96.60
2018-07-27T04:14:45.271Z,96.90
2018-07-27T04:17:13.284Z,96.70
2018-07-27T04:19:41.305Z,96.90
2018-07-27T04:22:09.329Z,99.90
2018-07-27T04:24:37.429Z,97.10
2018-07-27T04:27:05.493Z,97.00
2018-07-27T04:29:33.464Z,97.20
2018-07-27T04:32:01.481Z,97.80
2018-07-27T04:34:29.525Z,97.70
2018-07-27T04:36:57.550Z,97.40
2018-07-27T04:39:25.642Z,97.80
2018-07-27T04:46:49.565Z,98.10
2018-07-27T04:49:17.598Z,98.30
2018-07-27T04:51:45.650Z,98.10
2018-07-27T04:54:13.756Z,99.90
2018-07-27T04:56:41.832Z,98.40
2018-07-27T04:59:09.865Z,98.20
2018-07-27T05:01:38.010Z,98.30
2018-07-27T05:04:06.026Z,98.00
2018-07-27T05:06:34.072Z,98.20
2018-07-27T05:09:21.583Z,98.20
2018-07-27T05:11:49.822Z,99.90
2018-07-27T05:14:17.786Z,98.40
2018-07-27T05:16:45.851Z,98.90
2018-07-27T05:19:13.869Z,98.90
2018-07-27T05:21:42.097Z,98.70
2018-07-27T05:24:10.065Z,98.80
2018-07-27T05:26:38.154Z,98.70
2018-07-27T05:29:06.204Z,99.00
2018-07-27T05:31:34.179Z,98.50
2018-07-27T05:34:02.276Z,99.10
2018-07-27T05:36:30.239Z,98.60
2018-07-27T05:38:58.810Z,98.40
2018-07-27T05:41:26.892Z,97.90
2018-07-27T05:43:54.935Z,97.40
2018-07-27T05:46:22.978Z,97.10
2018-07-27T05:51:19.059Z,96.90
2018-07-27T05:53:47.055Z,96.50
2018-07-27T05:56:15.038Z,96.70
2018-07-27T05:58:43.144Z,96.40
2018-07-27T06:01:11.195Z,96.50
2018-07-27T06:03:39.216Z,96.40
2018-07-27T06:06:07.651Z,96.10
2018-07-27T06:08:35.660Z,95.80
2018-07-27T06:11:03.725Z,95.90
2018-07-27T06:13:31.755Z,95.50
2018-07-27T06:15:59.893Z,95.60
2018-07-27T06:18:28.024Z,95.40
2018-07-27T06:23:24.150Z,94.60
2018-07-27T06:25:52.194Z,94.80
2018-07-27T06:28:20.242Z,94.70
2018-07-27T06:30:48.279Z,95.10
2018-07-27T06:33:16.275Z,99.90
2018-07-27T06:35:44.362Z,94.90
2018-07-27T06:38:12.395Z,94.50
2018-07-27T06:40:40.407Z,94.20
2018-07-27T06:43:08.538Z,93.80
2018-07-27T06:45:36.497Z,98.40
2018-07-27T06:48:04.589Z,94.00
2018-07-27T06:50:32.581Z,94.00
2018-07-27T06:53:00.610Z,93.60
2018-07-27T06:55:29.252Z,93.50
2018-07-27T06:57:57.191Z,93.00
2018-07-27T07:00:25.182Z,93.00
2018-07-27T07:02:53.187Z,92.80
2018-07-27T07:05:21.237Z,92.90
2018-07-27T07:07:49.201Z,92.70
2018-07-27T07:10:17.150Z,92.50
2018-07-27T07:12:45.116Z,92.40
2018-07-27T07:15:13.100Z,92.40
2018-07-27T07:20:09.191Z,91.90
2018-07-27T07:22:37.503Z,91.70
2018-07-27T07:25:05.586Z,91.50
2018-07-27T07:27:33.575Z,91.10
2018-07-27T07:30:01.694Z,96.00
2018-07-27T07:32:29.640Z,96.90
2018-07-27T07:34:57.583Z,97.00
2018-07-27T07:39:53.512Z,92.10
2018-07-27T07:47:17.311Z,91.60
2018-07-27T07:49:45.377Z,92.20
2018-07-27T07:52:13.325Z,91.60
2018-07-27T07:54:41.315Z,92.80
2018-07-27T07:57:09.292Z,93.30
2018-07-27T08:02:05.472Z,93.50
2018-07-27T08:04:33.478Z,93.10
2018-07-27T08:07:01.442Z,93.10
2018-07-27T08:09:29.411Z,92.50
2018-07-27T08:11:57.402Z,92.70
2018-07-27T08:16:53.373Z,92.60
2018-07-27T08:19:21.372Z,92.20
2018-07-27T08:21:49.353Z,92.40
2018-07-27T08:24:17.350Z,92.20
2018-07-27T08:26:58.663Z,96.70
2018-07-27T08:29:30.863Z,96.80
2018-07-27T08:31:59.210Z,91.70
2018-07-27T08:34:27.159Z,91.90
2018-07-27T08:36:55.194Z,92.70
2018-07-27T08:39:24.572Z,92.40
2018-07-27T08:41:52.561Z,92.60
2018-07-27T08:44:21.974Z,98.10
2018-07-27T08:49:17.882Z,92.70
2018-07-27T08:51:45.821Z,92.80
2018-07-27T08:54:13.811Z,93.00
2018-07-27T08:56:41.826Z,92.80
2018-07-27T09:01:38.131Z,93.00
2018-07-27T09:04:06.085Z,92.80
2018-07-27T09:06:34.034Z,92.80
2018-07-27T09:11:29.918Z,92.00
2018-07-27T09:13:57.918Z,91.60
2018-07-27T09:16:25.902Z,91.80
2018-07-27T09:18:53.904Z,91.60
2018-07-27T09:21:21.897Z,91.60
2018-07-27T09:26:17.843Z,91.80
2018-07-27T09:28:45.770Z,96.60
2018-07-27T09:31:13.725Z,92.00
2018-07-27T09:33:41.708Z,96.50
2018-07-27T09:36:09.696Z,96.10
2018-07-27T09:38:37.702Z,92.20
2018-07-27T09:41:05.691Z,96.80
2018-07-27T09:43:33.659Z,92.60
2018-07-27T09:46:01.641Z,92.30
2018-07-27T09:48:29.566Z,92.40
2018-07-27T09:55:53.462Z,93.00
2018-07-27T09:58:21.468Z,92.90
2018-07-27T10:01:21.006Z,92.40
2018-07-27T10:03:49.004Z,91.80
2018-07-27T10:08:44.882Z,91.80
2018-07-27T10:11:12.866Z,92.40
2018-07-27T10:13:40.791Z,92.20
2018-07-27T10:16:09.170Z,91.50
2018-07-27T10:18:37.158Z,91.00
2018-07-27T10:26:01.173Z,92.20
2018-07-27T10:28:29.815Z,90.70
2018-07-27T10:33:25.657Z,90.80
2018-07-27T10:38:21.735Z,91.30
2018-07-27T10:40:49.743Z,95.30
2018-07-27T10:45:45.645Z,90.50
2018-07-27T10:48:13.607Z,88.10
2018-07-27T10:50:41.549Z,87.90
2018-07-27T10:53:09.534Z,88.60
2018-07-27T10:55:37.447Z,89.60
2018-07-27T10:58:05.471Z,90.00
2018-07-27T11:00:33.465Z,90.00
2018-07-27T11:03:01.427Z,89.80
2018-07-27T11:05:29.412Z,94.80
2018-07-27T11:07:57.412Z,90.00
2018-07-27T11:12:53.327Z,87.70
2018-07-27T11:17:49.283Z,87.30
2018-07-27T11:20:17.175Z,86.10
2018-07-27T11:22:45.100Z,86.30
2018-07-27T11:25:13.097Z,83.50
2018-07-27T11:27:41.089Z,85.80
2018-07-27T11:30:09.056Z,85.50
2018-07-27T11:32:37.025Z,82.90
2018-07-27T11:35:04.983Z,82.30
2018-07-27T11:37:32.979Z,82.60
2018-07-27T11:40:01.010Z,82.90
2018-07-27T11:42:29.069Z,83.50
2018-07-27T11:44:56.980Z,83.30
2018-07-27T11:47:24.951Z,90.20
2018-07-27T11:49:52.931Z,82.30
2018-07-27T11:52:20.899Z,80.10
2018-07-27T11:54:48.880Z,77.30
2018-07-27T11:57:16.821Z,76.60
2018-07-27T11:59:44.818Z,76.90
2018-07-27T12:02:12.801Z,77.50
2018-07-27T12:07:08.758Z,77.60
2018-07-27T12:09:36.655Z,77.70
2018-07-27T12:12:04.584Z,74.60
2018-07-27T12:14:32.770Z,74.80
2018-07-27T12:17:10.064Z,74.50
2018-07-27T12:19:33.807Z,74.40
2018-07-27T12:24:29.693Z,72.80
2018-07-27T12:26:57.690Z,70.30
2018-07-27T12:29:25.658Z,71.50
2018-07-27T12:31:53.662Z,70.30
2018-07-27T12:34:21.657Z,78.50
2018-07-27T12:36:49.595Z,79.40
2018-07-27T12:39:17.563Z,69.60
2018-07-27T12:41:45.558Z,68.20
2018-07-27T12:44:13.556Z,66.80
2018-07-27T12:46:41.536Z,68.20
2018-07-27T12:49:09.644Z,76.30
2018-07-27T12:51:37.821Z,69.30
2018-07-27T12:54:05.838Z,67.40
2018-07-27T12:56:33.954Z,65.90
2018-07-27T12:59:01.982Z,75.20
2018-07-27T13:01:29.919Z,65.70
2018-07-27T13:03:57.910Z,65.90
2018-07-27T13:06:25.913Z,76.10
2018-07-27T13:11:21.957Z,65.40
2018-07-27T13:16:17.929Z,63.60
2018-07-27T13:18:46.226Z,64.60
2018-07-27T13:21:14.198Z,64.00
2018-07-27T13:23:59.065Z,63.30
2018-07-27T13:26:27.108Z,62.60
2018-07-27T13:28:55.042Z,71.50
2018-07-27T13:31:58.814Z,61.60
2018-07-27T13:34:49.840Z,60.00
2018-07-27T13:39:47.384Z,58.70
2018-07-27T13:42:19.641Z,56.90
2018-07-27T13:44:47.668Z,56.40
2018-07-27T13:47:16.212Z,55.50
2018-07-27T13:49:44.200Z,56.80
2018-07-27T13:54:40.093Z,53.00
2018-07-27T13:57:08.351Z,52.90
2018-07-27T13:59:36.402Z,51.60
2018-07-27T14:02:04.545Z,51.20
2018-07-27T14:07:01.797Z,50.80
2018-07-27T14:09:29.762Z,51.10
2018-07-27T14:11:57.716Z,52.20
2018-07-27T14:14:25.784Z,50.80
2018-07-27T14:16:53.739Z,50.60
2018-07-27T14:19:22.037Z,51.10
2018-07-27T14:21:50.056Z,51.80
2018-07-27T14:24:18.039Z,60.60
2018-07-27T14:26:46.059Z,51.10
2018-07-27T14:29:14.026Z,50.40
2018-07-27T14:31:41.947Z,52.20
2018-07-27T14:34:10.104Z,52.20
2018-07-27T14:36:38.210Z,48.00
2018-07-27T14:39:11.289Z,46.00
2018-07-27T14:41:39.349Z,45.30
2018-07-27T14:44:07.352Z,44.40
2018-07-27T14:46:36.033Z,43.60
2018-07-27T14:49:11.920Z,42.10
2018-07-27T14:51:41.405Z,43.00
2018-07-27T14:54:11.029Z,41.90
2018-07-27T14:56:39.840Z,41.40
2018-07-27T14:59:08.523Z,40.60
2018-07-27T15:01:36.627Z,39.80
2018-07-27T15:04:05.286Z,40.70
2018-07-27T15:06:33.210Z,41.30
2018-07-27T15:09:01.315Z,40.80
2018-07-27T15:11:44.900Z,41.40
2018-07-27T15:14:13.125Z,40.20
2018-07-27T15:16:41.163Z,40.10
2018-07-27T15:19:09.227Z,39.30
2018-07-27T15:21:37.169Z,38.10
2018-07-27T15:24:05.271Z,37.90
2018-07-27T15:29:01.317Z,36.80
2018-07-27T15:31:29.306Z,37.30
2018-07-27T15:34:00.053Z,37.50
2018-07-27T15:36:28.170Z,41.20
2018-07-27T15:38:56.128Z,45.10
2018-07-27T15:41:24.085Z,49.20
2018-07-27T15:43:52.091Z,46.70
2018-07-27T15:48:48.012Z,47.40
2018-07-27T15:51:15.997Z,58.60
2018-07-27T15:54:47.529Z,58.70
2018-07-27T15:57:15.490Z,48.40
2018-07-27T15:59:43.482Z,55.10
2018-07-27T16:02:11.595Z,57.70
2018-07-27T16:04:39.713Z,48.30
2018-07-27T16:07:07.700Z,47.90
2018-07-27T16:12:03.612Z,48.40
2018-07-27T16:14:31.601Z,48.30
2018-07-27T16:19:28.584Z,50.50
2018-07-27T16:24:25.598Z,52.60
2018-07-27T16:26:53.595Z,59.30
2018-07-27T16:34:17.526Z,49.10
2018-07-27T16:36:45.789Z,47.50
2018-07-27T16:41:41.716Z,48.60
2018-07-27T16:49:05.744Z,45.70
2018-07-27T16:51:34.090Z,44.60
2018-07-27T16:54:02.981Z,45.40
2018-07-27T16:58:58.997Z,44.80
2018-07-27T17:01:27.009Z,55.70
2018-07-27T17:03:54.997Z,47.80
2018-07-27T17:06:22.964Z,48.80
2018-07-27T17:08:50.953Z,48.10
2018-07-27T17:11:18.885Z,48.50
2018-07-27T17:13:52.243Z,47.70
2018-07-27T17:16:20.370Z,47.40
2018-07-27T17:18:48.297Z,45.30
2018-07-27T17:23:44.262Z,45.00
2018-07-27T17:26:12.229Z,54.10
2018-07-27T17:28:40.207Z,44.30
2018-07-27T17:31:09.080Z,43.90
2018-07-27T17:36:05.087Z,43.50
2018-07-27T17:38:33.031Z,44.50
2018-07-27T17:41:01.011Z,44.00
2018-07-27T17:43:28.961Z,44.70
2018-07-27T17:45:56.931Z,54.50
2018-07-27T17:48:24.889Z,45.10
2018-07-27T17:50:52.809Z,45.40
2018-07-27T17:55:48.672Z,44.00
2018-07-27T17:58:16.686Z,44.40
2018-07-27T18:00:44.701Z,46.00
2018-07-27T18:03:12.627Z,47.50
2018-07-27T18:05:40.622Z,45.10
2018-07-27T18:10:36.750Z,44.80
2018-07-27T18:20:28.748Z,46.40
2018-07-27T18:22:56.787Z,55.70
2018-07-27T18:25:24.747Z,46.20
2018-07-27T18:27:52.683Z,49.10
2018-07-27T18:30:20.723Z,50.80
2018-07-27T18:35:16.858Z,54.40
2018-07-27T18:42:41.406Z,56.30
2018-07-27T18:45:10.047Z,57.10
2018-07-27T18:50:07.889Z,59.30
2018-07-27T18:52:35.879Z,60.30
2018-07-27T18:55:04.530Z,60.80
2018-07-27T18:57:32.454Z,63.10
2018-07-27T19:02:28.404Z,63.50
2018-07-27T19:04:56.333Z,63.50
2018-07-27T19:07:24.387Z,64.70
2018-07-27T19:12:20.251Z,66.30
2018-07-27T19:17:16.181Z,67.70
2018-07-27T19:24:40.056Z,67.40
2018-07-27T19:27:08.011Z,67.70
2018-07-27T19:29:35.952Z,67.50
2018-07-27T19:32:03.956Z,68.00
2018-07-27T19:34:31.897Z,68.10
2018-07-27T19:36:59.863Z,68.60
2018-07-27T19:39:27.810Z,68.80
2018-07-27T19:49:19.634Z,68.70
2018-07-27T19:51:47.609Z,68.70
2018-07-27T19:54:15.565Z,69.10
2018-07-27T19:56:43.556Z,69.10
2018-07-27T19:59:11.540Z,69.40
2018-07-27T20:04:07.437Z,70.40
2018-07-27T20:06:35.382Z,69.90
2018-07-27T20:09:06.463Z,70.20
2018-07-27T20:11:34.444Z,70.60
2018-07-27T20:14:02.389Z,71.10
2018-07-27T20:16:30.368Z,71.70
2018-07-27T20:18:58.331Z,72.40
2018-07-27T20:21:26.340Z,72.80
2018-07-27T20:26:22.202Z,73.20
2018-07-27T20:28:50.118Z,73.40
2018-07-27T20:31:18.085Z,74.00
2018-07-27T20:33:46.038Z,74.00
2018-07-27T20:36:14.006Z,74.20
2018-07-27T20:41:09.979Z,74.60
2018-07-27T20:46:05.893Z,79.00
2018-07-27T20:48:34.014Z,75.60
2018-07-27T20:51:02.045Z,75.90
2018-07-27T20:55:57.923Z,76.50
2018-07-27T20:58:25.833Z,86.80
2018-07-27T21:00:53.797Z,76.30
2018-07-27T21:03:21.760Z,76.50
2018-07-27T21:05:49.718Z,86.00
2018-07-27T21:08:17.679Z,77.70
2018-07-27T21:10:45.744Z,87.80
2018-07-27T21:13:13.681Z,77.20
2018-07-27T21:15:41.653Z,77.30
2018-07-27T21:18:09.610Z,77.50
2018-07-27T21:20:37.549Z,77.90
2018-07-27T21:23:05.516Z,78.30
2018-07-27T21:25:33.464Z,78.40
2018-07-27T21:28:01.562Z,78.80
2018-07-27T21:30:29.494Z,78.80
2018-07-27T21:32:57.473Z,78.50
2018-07-27T21:35:25.427Z,79.30
2018-07-27T21:37:53.413Z,79.30
2018-07-27T21:40:21.390Z,79.30
2018-07-27T21:42:49.334Z,79.20
2018-07-27T21:45:17.274Z,79.40
2018-07-27T21:47:45.254Z,79.50
2018-07-27T21:50:13.184Z,80.20
2018-07-27T21:57:37.000Z,80.10
2018-07-27T22:02:35.592Z,79.70
2018-07-27T22:07:31.832Z,80.10
2018-07-27T22:12:27.888Z,80.30
2018-07-27T22:14:55.826Z,80.20
2018-07-27T22:19:51.731Z,81.90
2018-07-27T22:22:19.859Z,82.40
2018-07-27T22:24:47.841Z,82.70
2018-07-27T22:27:15.943Z,83.20
2018-07-27T22:29:43.919Z,83.10
2018-07-27T22:32:11.937Z,83.70
2018-07-27T22:34:39.941Z,83.30
2018-07-27T22:37:07.879Z,84.60
2018-07-27T22:39:35.824Z,84.10
2018-07-27T22:46:59.714Z,84.00
2018-07-27T22:51:55.580Z,84.60
2018-07-27T22:54:23.661Z,84.20
2018-07-27T22:56:51.589Z,85.10
2018-07-27T22:59:19.793Z,85.00
2018-07-27T23:01:47.911Z,84.90
2018-07-27T23:04:18.285Z,85.90
2018-07-27T23:06:46.393Z,86.10
2018-07-27T23:09:14.373Z,86.20
2018-07-27T23:11:42.333Z,85.90
2018-07-27T23:14:10.321Z,86.10
2018-07-27T23:16:38.285Z,86.20
2018-07-27T23:19:06.202Z,86.90
2018-07-27T23:21:34.139Z,87.20
2018-07-27T23:26:30.041Z,87.90
2018-07-27T23:28:58.032Z,87.80
2018-07-27T23:31:25.980Z,93.80
2018-07-27T23:33:53.919Z,88.00
2018-07-27T23:36:21.906Z,88.50
2018-07-27T23:38:49.900Z,88.80
2018-07-27T23:41:17.887Z,94.50
2018-07-27T23:48:41.793Z,89.80
2018-07-27T23:53:37.954Z,90.00
2018-07-27T23:56:05.898Z,90.00
